AirNav   Everest Fuels
 
 1368 users online  

22CD Platte Valley Medical Center Heliport
Brighton, Colorado, USA

GOING TO BRIGHTON?


FAA INFORMATION EFFECTIVE 21 MAY 2020

Location

FAA Identifier: 22CD
Lat/Long: 39-57-57.7200N 104-46-02.8500W
39-57.962000N 104-46.047500W
39.9660333,-104.7674583
(estimated)
Elevation: 5115 ft. / 1559 m (estimated)
From city: 6 miles E of BRIGHTON, CO
Time zone: UTC -6 (UTC -7 during Standard Time)
Zip code: 80601

Heliport Operations

Heliport use: Private use, MEDICAL USE.
Activation date: 04/2007
Control tower: no
ARTCC: DENVER CENTER
FSS: DENVER FLIGHT SERVICE STATION
Attendance: CONTINUOUS
Segmented circle: no

Heliport Communications

WX ASOS at DEN (8 nm SE): PHONE 303-342-1920
WX AWOS-3 at EIK (13 nm W): 133.825 (303-604-4339)
WX AWOS-3 at CFO (15 nm SE): 119.025 (303-261-9104)
WX AWOS-3 at BJC (16 nm W): PHONE 720-887-8067

Nearby radio navigation aids

VOR radial/distance  VOR name  Freq  Var
DVVr295/7.9MILE HIGH VORTAC114.7008E
DENr324/10.4DENVER VOR/DME117.9008E
BJCr068/17.4JEFFCO VOR/DME115.4011E
FQFr327/17.9FALCON VORTAC116.3011E
GLLr184/33.7GILL VOR/DME114.2013E

Heliport Services

Runway Information

Helipad H1

Dimensions: 65 x 65 ft. / 20 x 20 m
Surface: concrete
Latitude: 39-57.962000N
Longitude: 104-46.047500W
Elevation: 5115.0 ft.
Traffic pattern: leftleft

Heliport Ownership and Management from official FAA records

Ownership: Privately-owned
Owner: PLATTE VALLEY MEDICAL CENTER
1600 PRAIRIE CENTER PARKWAY
BRIGHTON, CO 80601
Phone 303-498-1600
Manager: CHIYON LEE
1600 PRAIRIE CENTER PARKWAY
BRIGHTON, CO 80601
Phone 303-498-1450

Additional Remarks

MAINTAIN COMMS WITH HECKENDORF RANCH ARPT ON 122.9.
FOR CD CTC DENVER APCH AT 303-342-1916.

Instrument Procedures

There are no published instrument procedures at 22CD.

Some nearby airports with instrument procedures:

KDEN - Denver International Airport (8 nm SE)
KEIK - Erie Municipal Airport (13 nm W)
KCFO - Colorado Air and Space Port Airport (15 nm SE)
KBKF - Buckley Air Force Base (16 nm S)
KBJC - Rocky Mountain Metropolitan Airport (16 nm W)
 
Loc | Ops | Rwys | IFR | FBO | Links
Com | Nav | Svcs | Stats | Notes

AirBoss

 
Area around 22CD (Platte Valley Medical Center Heliport)
 
Road maps at: MapQuest Bing Google
 
Aerial photo
No photo
 
Sectional chart

 
Airport distance calculator
Flying to Platte Valley Medical Center Heliport? Find the distance to fly.

From to 22CD

Sunrise and sunset
Times for 02-Jun-2020
 Local
(UTC-6)
 Zulu
(UTC)
Morning civil twilight05:0011:00
Sunrise05:3311:33
Sunset20:2202:22
Evening civil twilight20:5402:54

Current date and time
Zulu (UTC)  02-Jun-2020 14:58:49
Local (UTC-6)  02-Jun-2020 08:58:49
 
METAR
KDEN 
10nm SE 
021453Z 32004KT 10SM CLR 25/08 A3015 RMK AO2 SLP122 T02500078 53018
KEIK 
13nm W 
021454Z AUTO 00000KT 10SM CLR 26/05 A3018 RMK AO2 T02610051
KBKF 
15nm S 
021358Z 23005KT 10SM FEW090 SCT130 BKN200 21/09 A3015 RMK AO2A SLP131 T02080091
KCFO 
15nm SE 
021447Z 32007KT 10SM SCT100 BKN150 26/06 A3016
KBJC 
16nm W 
021445Z 34007KT 10SM SCT100 BKN200 27/02 A3017
TAF
KDEN 
10nm SE 
021120Z 0212/0318 23011KT P6SM SCT220 FM021500 30012KT P6SM FEW100 SCT220 FM022000 02014KT P6SM SCT100 SCT220 FM030000 06012KT P6SM FEW070 SCT100 FM030200 13012KT P6SM VCSH SCT070 BKN100 FM030800 21007KT P6SM FEW100 SCT220
KBKF 
15nm S 
020907Z 0209/0315 17009KT 9999 FEW160 SCT220 QNH3009INS BECMG 0217/0218 01009KT 9999 BKN150 QNH3011INS TEMPO 0221/0305 8000 -SHRA BECMG 0305/0306 VRB06KT 9999 FEW100 QNH3019INS BECMG 0309/0310 VRB06KT 9999 SKC QNH3015INS TX31/0221Z TN15/0309Z
KBJC 
16nm W 
021120Z 0212/0312 27007KT P6SM FEW120 SCT220 FM021500 35010KT P6SM FEW100 SCT220 FM022000 07010KT P6SM SCT090 BKN180 FM030200 VRB04KT P6SM VCSH SCT070 SCT100 BKN200 FM030800 25007KT P6SM FEW100 SCT220
NOTAMs
Click for the latest NOTAMs
NOTAMs are issued by the DoD/FAA and will open in a separate window not controlled by AirNav.

 

 
 

Would you like to see your business listed on this page?

 If your business provides an interesting product or service to pilots, flight crews, aircraft, or users of the Platte Valley Medical Center Heliport, you should consider listing it here.  To start the listing process, click on the button below
 
Add a business
 

Other Pages about Platte Valley Medical Center Heliport

Update a link
 
Copyright © AirNav, LLC. All rights reserved. Privacy Policy  Contact